Time;durP1;ratioP1;P1;durP2;ratioP2;P2;SDS_P1;SDS_P2;PMS_P1;PMS_P2;Temp;Humidity;BMP_temperature;BMP_pressure;BME280_temperature;BME280_humidity;BME280_pressure;Samples;Min_cycle;Max_cycle;Signal;HPM_P1;HPM_P2
2022/06/22 00:00:28;;;;;;;8.57;5.07;;;26.10;54.80;;;;;;5012094;28;20471;-67
2022/06/22 00:02:56;;;;;;;6.80;4.60;;;26.10;54.50;;;;;;5013850;28;20461;-67
2022/06/22 00:05:47;;;;;;;6.20;3.70;;;26.10;54.30;;;;;;5010389;28;20448;-67
2022/06/22 00:08:18;;;;;;;5.40;3.50;;;26.00;54.40;;;;;;5011406;28;20903;-67
2022/06/22 00:10:57;;;;;;;4.90;3.40;;;25.90;53.90;;;;;;5013931;28;20518;-68
2022/06/22 00:13:27;;;;;;;4.17;3.43;;;25.80;53.30;;;;;;5013366;28;20462;-67
2022/06/22 00:16:23;;;;;;;5.13;3.67;;;25.80;53.30;;;;;;5011722;28;20555;-68
2022/06/22 00:18:50;;;;;;;4.63;3.40;;;25.80;53.50;;;;;;5006428;28;20508;-68
2022/06/22 00:21:33;;;;;;;4.33;3.90;;;25.70;53.30;;;;;;5015478;28;20431;-67
2022/06/22 00:24:01;;;;;;;4.93;3.53;;;25.60;53.50;;;;;;5016219;28;20439;-67
2022/06/22 00:26:34;;;;;;;4.37;3.30;;;25.60;53.30;;;;;;5013645;28;20514;-67
2022/06/22 00:29:16;;;;;;;4.73;3.40;;;25.60;53.40;;;;;;5016382;28;20544;-67
2022/06/22 00:31:57;;;;;;;5.80;3.67;;;25.60;53.30;;;;;;5015970;28;20828;-67
2022/06/22 00:34:26;;;;;;;4.17;3.60;;;25.50;53.60;;;;;;5010699;28;21010;-67
2022/06/22 00:36:57;;;;;;;6.73;3.63;;;25.50;53.40;;;;;;5017462;28;20481;-67
2022/06/22 00:39:48;;;;;;;5.97;3.20;;;25.50;53.20;;;;;;5013332;28;20448;-67
2022/06/22 00:42:26;;;;;;;3.87;3.47;;;25.50;53.00;;;;;;5003564;28;20534;-67
2022/06/22 00:45:12;;;;;;;4.07;3.10;;;25.40;52.90;;;;;;5017869;28;20434;-68
2022/06/22 00:47:45;;;;;;;5.00;3.70;;;25.40;52.30;;;;;;5013669;28;20479;-67
2022/06/22 00:50:21;;;;;;;4.13;3.53;;;25.30;52.30;;;;;;5016325;28;20508;-68
2022/06/22 00:53:11;;;;;;;4.13;3.07;;;25.10;52.30;;;;;;5014040;28;20473;-68
2022/06/22 00:55:47;;;;;;;6.00;4.20;;;25.10;52.60;;;;;;5004108;28;20443;-68
2022/06/22 00:58:35;;;;;;;6.37;3.70;;;25.00;52.70;;;;;;5013158;28;20462;-67
2022/06/22 01:01:18;;;;;;;4.80;3.50;;;25.00;53.00;;;;;;5013808;28;20458;-67
2022/06/22 01:04:06;;;;;;;3.40;2.90;;;24.90;53.20;;;;;;5013665;28;20535;-68
2022/06/22 01:06:38;;;;;;;4.30;3.50;;;24.90;53.50;;;;;;5017600;28;20427;-67
2022/06/22 01:09:13;;;;;;;7.43;3.80;;;24.90;53.70;;;;;;5014568;28;20474;-68
2022/06/22 01:12:16;;;;;;;4.30;3.87;;;24.90;54.00;;;;;;5014911;28;20439;-68
2022/06/22 01:14:44;;;;;;;8.00;3.80;;;24.80;54.10;;;;;;5005463;28;20662;-67
2022/06/22 01:17:25;;;;;;;7.80;4.50;;;24.80;54.50;;;;;;5016065;28;20447;-67
2022/06/22 01:20:22;;;;;;;5.53;4.17;;;24.70;54.20;;;;;;5010679;28;20447;-67
2022/06/22 01:23:24;;;;;;;5.80;4.53;;;24.60;54.40;;;;;;5012160;28;21094;-67
2022/06/22 01:26:12;;;;;;;7.17;3.40;;;24.60;55.10;;;;;;5013572;28;20545;-67
2022/06/22 01:28:38;;;;;;;7.10;4.20;;;24.60;54.50;;;;;;5015341;28;20463;-67
2022/06/22 01:31:07;;;;;;;4.13;3.73;;;24.50;54.50;;;;;;5011688;28;20447;-67
2022/06/22 01:33:37;;;;;;;6.97;3.43;;;24.20;54.60;;;;;;5015431;28;20710;-67
2022/06/22 01:36:10;;;;;;;4.87;3.73;;;24.10;55.20;;;;;;5011576;28;20577;-67
2022/06/22 01:38:40;;;;;;;5.17;3.40;;;24.00;55.30;;;;;;5014342;28;20460;-67
2022/06/22 01:41:44;;;;;;;3.23;2.87;;;24.10;54.80;;;;;;5013197;28;20488;-67
2022/06/22 01:44:16;;;;;;;4.47;3.03;;;24.10;54.80;;;;;;5007687;28;20673;-66
2022/06/22 01:46:50;;;;;;;4.37;3.10;;;24.30;54.70;;;;;;5013079;28;20947;-66
2022/06/22 01:49:18;;;;;;;3.90;2.80;;;24.40;54.70;;;;;;5000278;28;20899;-66
2022/06/22 01:51:54;;;;;;;4.87;3.80;;;24.30;55.20;;;;;;5009202;28;20444;-66
2022/06/22 01:54:32;;;;;;;6.10;2.77;;;24.30;55.20;;;;;;5012883;28;20775;-67
2022/06/22 01:57:03;;;;;;;5.80;4.10;;;24.30;55.00;;;;;;5011539;28;20468;-66
2022/06/22 02:00:05;;;;;;;4.00;3.27;;;24.30;55.40;;;;;;5011725;28;21072;-67
2022/06/22 02:02:41;;;;;;;4.70;3.50;;;24.30;55.30;;;;;;5009364;28;20469;-68
2022/06/22 02:05:19;;;;;;;4.33;3.50;;;24.20;55.10;;;;;;5010978;28;20439;-69
2022/06/22 02:07:56;;;;;;;3.53;3.00;;;24.10;55.40;;;;;;5012349;28;20463;-69
2022/06/22 02:10:34;;;;;;;5.10;3.43;;;24.10;55.30;;;;;;5018599;28;20554;-69
2022/06/22 02:13:16;;;;;;;5.23;3.87;;;24.10;55.20;;;;;;5015517;28;20455;-69
2022/06/22 02:15:46;;;;;;;5.67;4.13;;;24.10;55.20;;;;;;5011953;28;20941;-67
2022/06/22 02:18:13;;;;;;;6.67;3.40;;;24.10;55.10;;;;;;5013493;28;20452;-67
2022/06/22 02:20:39;;;;;;;3.73;3.33;;;24.10;55.20;;;;;;5010655;28;20448;-68
2022/06/22 02:23:16;;;;;;;12.10;4.87;;;24.10;55.40;;;;;;4994291;28;20470;-67
2022/06/22 02:25:48;;;;;;;4.40;3.57;;;24.10;55.50;;;;;;5012316;28;20578;-67
2022/06/22 02:28:14;;;;;;;6.33;4.00;;;24.10;55.60;;;;;;5011744;28;20506;-67
2022/06/22 02:30:41;;;;;;;3.30;3.00;;;24.00;55.60;;;;;;5017986;28;20545;-68
2022/06/22 02:33:08;;;;;;;5.30;4.13;;;24.00;55.80;;;;;;4999441;28;21818;-67
2022/06/22 02:35:34;;;;;;;7.60;3.90;;;24.00;55.90;;;;;;5013030;28;20956;-67
2022/06/22 02:38:05;;;;;;;5.77;3.60;;;23.90;56.10;;;;;;5008079;28;20503;-67
2022/06/22 02:40:34;;;;;;;4.37;3.97;;;23.90;56.10;;;;;;5014020;28;21030;-66
2022/06/22 02:45:44;;;;;;;6.93;3.17;;;23.80;56.20;;;;;;5013176;28;20447;-67
2022/06/22 02:48:27;;;;;;;3.30;3.00;;;23.80;56.10;;;;;;5013906;28;21790;-67
2022/06/22 02:51:01;;;;;;;11.13;3.60;;;23.70;56.00;;;;;;5010610;28;20475;-67
2022/06/22 02:53:34;;;;;;;4.97;3.67;;;23.70;56.20;;;;;;4996496;28;21370;-67
2022/06/22 02:56:05;;;;;;;4.63;3.17;;;23.60;56.10;;;;;;5011392;28;20721;-66
2022/06/22 02:58:33;;;;;;;4.87;3.70;;;23.50;56.10;;;;;;5014843;28;20463;-68
2022/06/22 03:01:11;;;;;;;4.77;2.90;;;23.50;56.10;;;;;;5014249;28;20439;-67
2022/06/22 03:03:38;;;;;;;6.73;3.27;;;23.50;55.80;;;;;;5011759;28;20458;-67
2022/06/22 03:06:07;;;;;;;3.30;3.00;;;23.50;55.70;;;;;;5016313;28;21340;-67
2022/06/22 03:08:33;;;;;;;4.47;3.23;;;23.50;55.70;;;;;;5010799;28;20550;-67
2022/06/22 03:11:04;;;;;;;5.00;3.43;;;23.50;55.80;;;;;;5014366;28;20501;-67
2022/06/22 03:13:35;;;;;;;4.20;3.20;;;23.40;56.10;;;;;;5015853;28;20447;-67
2022/06/22 03:16:01;;;;;;;5.20;3.50;;;23.40;56.00;;;;;;5014711;28;20472;-66
2022/06/22 03:18:30;;;;;;;5.80;3.40;;;23.40;55.90;;;;;;5011644;28;20486;-67
2022/06/22 03:21:00;;;;;;;3.50;3.20;;;23.30;55.90;;;;;;5008647;28;20185;-67
2022/06/22 03:24:06;;;;;;;4.47;3.47;;;23.30;56.10;;;;;;5012352;28;20451;-67
2022/06/22 03:26:39;;;;;;;5.63;2.97;;;23.20;55.80;;;;;;5014347;28;20440;-68
2022/06/22 03:29:32;;;;;;;6.20;3.20;;;23.30;55.90;;;;;;5007775;28;20467;-67
2022/06/22 03:32:02;;;;;;;4.60;3.00;;;23.30;55.60;;;;;;5012050;28;20439;-68
2022/06/22 03:34:37;;;;;;;4.10;3.13;;;23.40;55.60;;;;;;5012699;28;20471;-68
2022/06/22 03:37:24;;;;;;;3.43;3.07;;;23.40;55.30;;;;;;5009599;28;20805;-68
2022/06/22 03:39:57;;;;;;;5.47;3.30;;;23.30;55.30;;;;;;4994114;28;20447;-68
2022/06/22 03:42:35;;;;;;;7.23;3.27;;;23.30;55.30;;;;;;5013110;28;20445;-67
2022/06/22 03:45:02;;;;;;;5.67;3.63;;;23.30;55.10;;;;;;4998248;28;20477;-68
2022/06/22 03:47:41;;;;;;;3.70;3.10;;;23.30;55.30;;;;;;5014437;28;21372;-68
2022/06/22 03:50:29;;;;;;;4.93;2.90;;;23.30;55.30;;;;;;4994464;28;21444;-68
2022/06/22 03:53:06;;;;;;;4.30;3.20;;;23.30;55.20;;;;;;5012016;28;20622;-67
2022/06/22 03:55:35;;;;;;;3.47;3.17;;;23.40;55.30;;;;;;5004541;28;21119;-67
2022/06/22 03:58:03;;;;;;;5.40;2.93;;;23.30;55.30;;;;;;5003367;28;21066;-67
2022/06/22 04:00:33;;;;;;;4.07;3.27;;;23.30;55.20;;;;;;5016455;28;20495;-67
2022/06/22 04:02:59;;;;;;;3.97;2.83;;;23.30;55.10;;;;;;5015113;28;20444;-67
2022/06/22 04:05:33;;;;;;;3.73;3.30;;;23.30;55.00;;;;;;5016049;28;20448;-68
2022/06/22 04:08:00;;;;;;;4.50;3.30;;;23.30;55.00;;;;;;5017296;28;20483;-67
2022/06/22 04:10:44;;;;;;;4.00;3.10;;;23.30;55.10;;;;;;5016271;28;20462;-67
2022/06/22 04:13:21;;;;;;;3.53;3.13;;;23.20;55.20;;;;;;5015496;28;20439;-68
2022/06/22 04:15:54;;;;;;;3.37;2.90;;;23.20;55.20;;;;;;5018921;28;20438;-68
2022/06/22 04:18:34;;;;;;;7.50;3.10;;;23.20;55.20;;;;;;4996463;28;20999;-67
2022/06/22 04:21:06;;;;;;;3.40;3.10;;;23.10;55.40;;;;;;5011917;28;20440;-68
2022/06/22 04:23:44;;;;;;;3.67;3.23;;;23.20;55.30;;;;;;5017891;28;20490;-67
2022/06/22 04:26:26;;;;;;;4.60;3.13;;;23.10;55.90;;;;;;5016034;28;20465;-68
2022/06/22 04:29:19;;;;;;;4.10;2.90;;;23.10;55.80;;;;;;5014888;28;20474;-67
2022/06/22 04:32:15;;;;;;;4.33;3.10;;;23.00;56.20;;;;;;5013842;28;20431;-67
2022/06/22 04:34:53;;;;;;;3.10;2.80;;;23.10;56.10;;;;;;5015046;28;20435;-67
2022/06/22 04:37:30;;;;;;;4.97;3.63;;;23.10;56.30;;;;;;5015630;28;20456;-67
2022/06/22 04:40:18;;;;;;;7.07;4.37;;;23.10;56.30;;;;;;5015432;28;20499;-67
2022/06/22 04:42:45;;;;;;;4.93;3.80;;;23.10;56.50;;;;;;5014791;28;20463;-68
2022/06/22 04:45:32;;;;;;;5.17;2.73;;;23.10;56.60;;;;;;5014548;28;20558;-67
2022/06/22 04:48:06;;;;;;;3.27;2.97;;;23.10;56.90;;;;;;5013775;28;20517;-68
2022/06/22 04:50:33;;;;;;;6.83;4.00;;;23.10;56.90;;;;;;5016898;28;20525;-67
2022/06/22 04:53:01;;;;;;;9.83;3.63;;;23.20;57.20;;;;;;5016696;28;20444;-67
2022/06/22 04:55:28;;;;;;;4.77;4.27;;;23.20;57.10;;;;;;5013757;28;20449;-67
2022/06/22 04:58:01;;;;;;;3.53;3.10;;;23.10;57.00;;;;;;5016003;28;20454;-67
2022/06/22 05:00:30;;;;;;;8.20;3.50;;;23.10;56.80;;;;;;5016175;28;20987;-67
2022/06/22 05:03:04;;;;;;;3.50;3.20;;;23.10;57.10;;;;;;5016886;28;20483;-67
2022/06/22 05:05:33;;;;;;;4.50;3.87;;;23.10;56.90;;;;;;5016731;28;20442;-67
2022/06/22 05:08:36;;;;;;;4.60;3.10;;;23.20;56.60;;;;;;5013002;28;21054;-67
2022/06/22 05:11:10;;;;;;;4.20;3.53;;;23.10;56.60;;;;;;5014147;28;20471;-67
2022/06/22 05:13:43;;;;;;;3.43;3.00;;;23.20;56.70;;;;;;5020433;28;20432;-67
2022/06/22 05:16:19;;;;;;;4.53;3.13;;;23.10;56.50;;;;;;5012693;28;20959;-68
2022/06/22 05:18:47;;;;;;;4.93;2.83;;;23.10;56.70;;;;;;5011748;28;20462;-68
2022/06/22 05:21:30;;;;;;;6.57;4.27;;;23.10;56.60;;;;;;5013460;28;20615;-68
2022/06/22 05:24:01;;;;;;;4.80;3.20;;;23.20;56.50;;;;;;5012608;28;20430;-68
2022/06/22 05:26:28;;;;;;;3.27;2.80;;;23.20;56.50;;;;;;5010805;28;20489;-69
2022/06/22 05:29:41;;;;;;;5.23;3.77;;;23.20;56.40;;;;;;5013499;28;20474;-68
2022/06/22 05:32:51;;;;;;;5.70;4.80;;;23.20;56.60;;;;;;4940358;28;20650;-67
2022/06/22 05:35:25;;;;;;;7.70;6.50;;;23.20;56.40;;;;;;4926272;28;20836;-69
2022/06/22 05:37:54;;;;;;;6.47;4.00;;;23.20;56.00;;;;;;4987570;28;20471;-69
2022/06/22 05:40:23;;;;;;;7.30;4.10;;;23.30;56.20;;;;;;4993712;28;20960;-68
2022/06/22 05:42:49;;;;;;;5.30;4.40;;;23.20;56.00;;;;;;5011896;28;20440;-69
2022/06/22 05:45:22;;;;;;;6.00;3.00;;;23.00;56.60;;;;;;5016427;28;20509;-67
2022/06/22 05:47:48;;;;;;;6.80;5.13;;;23.00;57.00;;;;;;5008353;28;20490;-68
2022/06/22 05:50:43;;;;;;;7.20;3.97;;;22.90;57.10;;;;;;5012056;28;21080;-69
2022/06/22 05:53:18;;;;;;;4.43;3.70;;;23.10;56.70;;;;;;5006333;28;20835;-67
2022/06/22 05:55:51;;;;;;;7.27;4.37;;;23.10;56.50;;;;;;5012229;28;20493;-67
2022/06/22 05:58:41;;;;;;;5.90;4.13;;;23.20;56.80;;;;;;5014238;28;20460;-69
2022/06/22 06:01:45;;;;;;;5.90;4.10;;;23.20;56.90;;;;;;5012693;28;20443;-67
2022/06/22 06:04:20;;;;;;;8.47;7.23;;;23.30;56.90;;;;;;5010237;28;20447;-68
2022/06/22 06:06:46;;;;;;;8.43;3.93;;;23.50;56.60;;;;;;4994629;28;20439;-67
2022/06/22 06:09:19;;;;;;;3.90;3.10;;;23.60;57.00;;;;;;5013531;28;20548;-67
2022/06/22 06:11:58;;;;;;;5.03;3.87;;;23.60;56.70;;;;;;5010741;28;20434;-68
2022/06/22 06:14:32;;;;;;;4.13;3.03;;;23.70;56.30;;;;;;5014154;28;20492;-69
2022/06/22 06:17:07;;;;;;;7.00;3.60;;;23.70;56.00;;;;;;5011666;28;20459;-69
2022/06/22 06:19:37;;;;;;;4.17;3.43;;;23.80;56.10;;;;;;5014068;28;20821;-68
2022/06/22 06:22:04;;;;;;;6.10;3.50;;;23.80;56.30;;;;;;5012058;28;20444;-68
2022/06/22 06:27:42;;;;;;;4.33;3.77;;;23.90;56.40;;;;;;5011208;28;20532;-70
2022/06/22 06:30:16;;;;;;;4.37;3.60;;;24.00;56.30;;;;;;5008418;28;20906;-69
2022/06/22 06:32:46;;;;;;;5.13;3.43;;;24.00;56.50;;;;;;5010582;28;20438;-69
2022/06/22 06:35:39;;;;;;;5.53;3.63;;;24.10;56.40;;;;;;5012745;28;20430;-70
2022/06/22 06:38:50;;;;;;;7.47;4.20;;;24.20;56.60;;;;;;5008337;28;20469;-68
2022/06/22 06:41:38;;;;;;;3.63;3.20;;;24.20;57.10;;;;;;5011968;28;20455;-69
2022/06/22 06:44:13;;;;;;;3.83;3.03;;;24.30;56.90;;;;;;5012193;28;20447;-68
2022/06/22 06:46:46;;;;;;;9.27;3.90;;;24.30;56.80;;;;;;5009907;28;20505;-68
2022/06/22 06:49:22;;;;;;;5.17;3.70;;;24.40;56.70;;;;;;5013650;28;20473;-68
2022/06/22 06:51:55;;;;;;;4.80;3.33;;;24.40;56.60;;;;;;5009522;28;20435;-69
2022/06/22 06:54:27;;;;;;;6.13;3.60;;;24.40;56.60;;;;;;5008898;28;20423;-69
2022/06/22 06:57:06;;;;;;;5.60;3.33;;;24.40;56.70;;;;;;5012641;28;20444;-68
2022/06/22 06:59:33;;;;;;;5.70;3.10;;;24.40;56.90;;;;;;4994373;28;20475;-70
2022/06/22 07:02:05;;;;;;;4.33;3.60;;;24.40;57.00;;;;;;5012849;28;20424;-69
2022/06/22 07:04:34;;;;;;;4.47;3.50;;;24.40;57.50;;;;;;5009993;28;20439;-69
2022/06/22 07:07:28;;;;;;;7.53;3.27;;;24.40;57.40;;;;;;5013631;28;20452;-69
2022/06/22 07:09:58;;;;;;;5.40;4.03;;;24.50;57.30;;;;;;4977298;28;20479;-70
2022/06/22 07:12:36;;;;;;;6.90;4.27;;;24.60;57.40;;;;;;5007683;28;20819;-69
2022/06/22 07:15:05;;;;;;;4.47;3.33;;;24.60;57.60;;;;;;5008015;28;20431;-70
2022/06/22 07:17:32;;;;;;;6.80;3.73;;;24.70;57.60;;;;;;5012410;28;20452;-69
2022/06/22 07:20:18;;;;;;;6.00;4.10;;;24.70;57.60;;;;;;5009143;28;21058;-69
2022/06/22 07:22:48;;;;;;;6.30;3.17;;;24.60;57.80;;;;;;5010447;28;20444;-69
2022/06/22 07:25:27;;;;;;;4.80;3.70;;;24.60;57.80;;;;;;5012720;28;20530;-69
2022/06/22 07:27:55;;;;;;;6.10;3.10;;;24.60;58.10;;;;;;5010116;28;21504;-69
2022/06/22 07:30:36;;;;;;;3.97;3.63;;;24.60;57.80;;;;;;5012768;28;20481;-68
2022/06/22 07:33:09;;;;;;;6.17;4.50;;;24.60;57.90;;;;;;5013690;28;20430;-68
2022/06/22 07:35:48;;;;;;;5.70;3.40;;;24.60;58.00;;;;;;5017346;28;20956;-69
2022/06/22 07:38:27;;;;;;;7.07;4.07;;;24.60;58.20;;;;;;5015598;28;20885;-68
2022/06/22 07:43:37;;;;;;;5.73;3.90;;;24.60;58.30;;;;;;5014770;28;20443;-68
2022/06/22 07:46:06;;;;;;;5.97;3.33;;;24.60;58.30;;;;;;5016217;28;20440;-68
2022/06/22 07:48:37;;;;;;;3.90;3.53;;;24.60;58.70;;;;;;5012801;28;20216;-69
2022/06/22 07:51:05;;;;;;;4.10;3.20;;;24.60;57.90;;;;;;5016138;28;20474;-69
2022/06/22 07:53:59;;;;;;;5.07;4.60;;;24.70;58.10;;;;;;5017453;28;20439;-69
2022/06/22 07:56:46;;;;;;;7.90;3.47;;;24.70;58.20;;;;;;5013819;28;20432;-69
2022/06/22 07:59:20;;;;;;;4.23;3.70;;;24.70;58.00;;;;;;5011315;28;20442;-69
2022/06/22 08:01:49;;;;;;;6.33;3.80;;;24.70;58.00;;;;;;5010729;28;20999;-69
2022/06/22 08:04:29;;;;;;;6.23;4.10;;;24.70;58.10;;;;;;4996901;28;20872;-68
2022/06/22 08:07:26;;;;;;;9.30;3.37;;;24.70;58.10;;;;;;5018270;28;20546;-68
2022/06/22 08:10:10;;;;;;;5.90;4.23;;;24.70;58.00;;;;;;5012371;28;20467;-67
2022/06/22 08:12:53;;;;;;;9.47;3.70;;;24.70;58.00;;;;;;5014480;28;20877;-69
2022/06/22 08:15:20;;;;;;;4.30;3.57;;;24.70;58.50;;;;;;5013752;28;20432;-69
2022/06/22 08:17:52;;;;;;;5.17;4.27;;;24.70;58.20;;;;;;5015341;28;20525;-69
2022/06/22 08:20:25;;;;;;;5.60;3.43;;;24.80;58.20;;;;;;5017041;28;20449;-68
2022/06/22 08:22:53;;;;;;;7.00;3.60;;;24.70;58.20;;;;;;5010841;28;20440;-68
2022/06/22 08:25:21;;;;;;;5.17;3.83;;;24.80;58.00;;;;;;5012591;28;20444;-68
2022/06/22 08:27:48;;;;;;;5.30;4.10;;;24.80;57.80;;;;;;5012230;28;20524;-68
2022/06/22 08:30:15;;;;;;;5.30;3.87;;;24.90;58.00;;;;;;5011240;28;20536;-68
2022/06/22 08:33:04;;;;;;;3.67;3.20;;;24.90;58.30;;;;;;5016060;28;20435;-68
2022/06/22 08:35:43;;;;;;;4.83;3.93;;;24.90;58.40;;;;;;5012611;28;20462;-67
2022/06/22 08:38:12;;;;;;;4.50;3.83;;;24.80;58.00;;;;;;5012778;28;20461;-66
2022/06/22 08:40:53;;;;;;;9.43;4.57;;;24.70;57.80;;;;;;5016576;28;20466;-67
2022/06/22 08:43:39;;;;;;;17.73;4.90;;;24.70;58.20;;;;;;5016571;28;20970;-69
2022/06/22 08:46:40;;;;;;;8.40;4.67;;;24.80;58.10;;;;;;5013136;28;20449;-65
2022/06/22 08:49:35;;;;;;;6.80;4.27;;;24.70;58.00;;;;;;5016407;28;20519;-66
2022/06/22 08:52:03;;;;;;;7.97;5.13;;;24.70;58.20;;;;;;5014107;28;20454;-66
2022/06/22 08:55:14;;;;;;;6.77;4.17;;;24.70;58.50;;;;;;5014751;28;20436;-68
2022/06/22 08:58:04;;;;;;;8.93;4.47;;;24.70;58.20;;;;;;5011937;28;20458;-69
2022/06/22 09:00:48;;;;;;;8.23;5.00;;;24.60;58.40;;;;;;5011666;28;20435;-69
2022/06/22 09:03:51;;;;;;;5.87;4.00;;;24.50;58.90;;;;;;5009236;28;20490;-69
2022/06/22 09:06:35;;;;;;;6.40;4.47;;;24.50;59.00;;;;;;5012316;28;20450;-70
2022/06/22 09:09:13;;;;;;;5.13;3.60;;;24.20;59.90;;;;;;5011748;28;20451;-68
2022/06/22 09:12:00;;;;;;;6.57;4.17;;;24.20;60.50;;;;;;5013333;28;20448;-67
2022/06/22 09:14:55;;;;;;;4.60;3.97;;;24.20;61.60;;;;;;4996555;28;21088;-69
2022/06/22 09:17:36;;;;;;;5.33;4.60;;;24.10;64.10;;;;;;5012942;28;20459;-69
2022/06/22 09:20:10;;;;;;;4.97;4.17;;;23.80;65.40;;;;;;5012228;28;20447;-67
2022/06/22 09:22:58;;;;;;;6.60;4.27;;;23.90;63.90;;;;;;5014143;28;20856;-68
2022/06/22 09:25:37;;;;;;;10.60;4.60;;;23.90;64.90;;;;;;5013817;28;20911;-68
2022/06/22 09:28:10;;;;;;;6.50;4.40;;;23.90;64.50;;;;;;5017286;28;20458;-69
2022/06/22 09:30:44;;;;;;;10.50;5.23;;;23.80;65.40;;;;;;5012035;28;20472;-68
2022/06/22 09:33:10;;;;;;;5.60;4.47;;;23.80;66.40;;;;;;5013814;28;20427;-67
2022/06/22 09:36:00;;;;;;;7.87;5.23;;;23.70;66.60;;;;;;5013570;28;20484;-67
2022/06/22 09:38:38;;;;;;;8.17;4.27;;;23.80;67.50;;;;;;5014860;28;20209;-67
2022/06/22 09:41:26;;;;;;;6.10;4.60;;;23.90;68.40;;;;;;5011206;28;20431;-69
2022/06/22 09:44:15;;;;;;;14.23;6.20;;;23.90;67.70;;;;;;5013135;28;20436;-67
2022/06/22 09:46:52;;;;;;;9.87;5.13;;;23.80;68.50;;;;;;5011635;28;20497;-67
2022/06/22 09:49:43;;;;;;;11.17;5.23;;;23.90;68.90;;;;;;5014769;28;20473;-65
2022/06/22 09:52:40;;;;;;;8.30;4.30;;;23.90;70.40;;;;;;5013553;28;21094;-66
2022/06/22 09:58:36;;;;;;;8.20;4.63;;;24.00;72.60;;;;;;5014937;28;20995;-67
2022/06/22 10:01:16;;;;;;;7.30;4.47;;;24.10;72.30;;;;;;5014406;28;20435;-67
2022/06/22 10:04:07;;;;;;;7.43;5.00;;;24.10;72.80;;;;;;5013559;28;20453;-67
2022/06/22 10:06:44;;;;;;;9.30;6.47;;;24.10;74.50;;;;;;5014659;28;20901;-66
2022/06/22 10:09:30;;;;;;;10.03;5.10;;;24.10;74.50;;;;;;5015226;28;20442;-65
2022/06/22 10:12:14;;;;;;;6.00;5.40;;;24.20;75.00;;;;;;5016434;28;23358;-66
2022/06/22 10:15:01;;;;;;;7.37;5.43;;;24.20;75.30;;;;;;5009371;28;20506;-66
2022/06/22 10:17:50;;;;;;;9.27;5.40;;;24.20;75.60;;;;;;5012491;28;20460;-66
2022/06/22 10:20:53;;;;;;;7.30;5.50;;;24.30;75.80;;;;;;5011631;28;20842;-66
2022/06/22 10:23:22;;;;;;;8.53;6.63;;;24.30;77.10;;;;;;5010015;28;20561;-66
2022/06/22 10:26:07;;;;;;;8.17;5.77;;;24.40;76.90;;;;;;5011102;28;20968;-67
2022/06/22 10:29:02;;;;;;;14.83;7.80;;;24.50;77.70;;;;;;5009064;28;20904;-70
2022/06/22 10:31:48;;;;;;;10.60;6.03;;;24.60;79.10;;;;;;5010822;28;20447;-68
2022/06/22 10:34:38;;;;;;;9.90;6.93;;;24.70;77.80;;;;;;5009503;28;20454;-69
2022/06/22 10:37:18;;;;;;;12.50;6.83;;;24.90;78.40;;;;;;5013840;28;20950;-68
2022/06/22 10:40:11;;;;;;;8.10;6.67;;;24.70;79.40;;;;;;5013170;28;20455;-69
2022/06/22 10:45:54;;;;;;;11.80;7.70;;;24.60;81.80;;;;;;5012893;28;20427;-69
2022/06/22 10:48:46;;;;;;;14.77;7.93;;;24.70;81.20;;;;;;5012119;28;20474;-69
2022/06/22 10:51:24;;;;;;;10.50;7.47;;;24.80;82.80;;;;;;5012708;28;21202;-68
2022/06/22 10:54:04;;;;;;;13.83;8.57;;;25.00;82.10;;;;;;5011567;28;20919;-68
2022/06/22 10:56:32;;;;;;;12.23;8.17;;;24.90;82.40;;;;;;5011210;28;20443;-68
2022/06/22 10:59:43;;;;;;;8.60;7.70;;;25.20;82.50;;;;;;5010610;28;20493;-68
2022/06/22 11:02:33;;;;;;;7.20;6.50;;;25.50;81.50;;;;;;4984640;28;20486;-68
2022/06/22 11:05:46;;;;;;;11.80;7.23;;;25.60;83.60;;;;;;5014372;28;21007;-69
2022/06/22 11:08:15;;;;;;;11.53;7.90;;;25.60;84.20;;;;;;5015117;28;20461;-68
2022/06/22 11:11:03;;;;;;;10.97;9.87;;;25.50;86.70;;;;;;5012337;28;21163;-69
2022/06/22 11:13:35;;;;;;;14.97;8.83;;;25.60;85.10;;;;;;5011741;28;20468;-68
2022/06/22 11:16:19;;;;;;;8.97;8.17;;;25.40;86.60;;;;;;5011658;28;20435;-68
2022/06/22 11:19:19;;;;;;;10.43;9.33;;;25.40;87.10;;;;;;5011074;28;20459;-68
2022/06/22 11:22:04;;;;;;;8.83;8.00;;;25.40;87.20;;;;;;5007888;28;20447;-68
2022/06/22 11:24:52;;;;;;;9.13;8.13;;;25.30;87.60;;;;;;5012183;28;20530;-67
2022/06/22 11:31:12;;;;;;;10.80;9.70;;;25.30;90.10;;;;;;5007406;28;20530;-68
2022/06/22 11:34:24;;;;;;;12.00;9.50;;;25.20;91.00;;;;;;5012686;28;20871;-67
2022/06/22 11:37:18;;;;;;;11.23;9.17;;;24.90;92.10;;;;;;5011897;28;20458;-68
2022/06/22 11:40:06;;;;;;;11.00;9.50;;;25.10;92.30;;;;;;5011279;28;20444;-67
2022/06/22 11:42:59;;;;;;;13.07;9.73;;;25.20;92.40;;;;;;5011019;28;20428;-68
2022/06/22 11:48:46;;;;;;;14.90;11.30;;;25.30;93.50;;;;;;5010671;28;20498;-66
2022/06/22 11:51:29;;;;;;;13.77;10.57;;;25.20;94.20;;;;;;5014208;28;20463;-67
2022/06/22 11:54:34;;;;;;;11.33;10.23;;;25.20;94.90;;;;;;5011234;28;20808;-67
2022/06/22 11:57:15;;;;;;;13.77;10.30;;;25.00;96.60;;;;;;5003282;28;20875;-66
2022/06/22 11:59:43;;;;;;;12.37;11.17;;;25.00;98.10;;;;;;5007575;28;20575;-68
2022/06/22 12:02:30;;;;;;;17.20;11.30;;;25.00;99.10;;;;;;5006493;28;20438;-67
2022/06/22 12:05:21;;;;;;;12.73;10.80;;;24.90;99.90;;;;;;5015703;28;20458;-68
2022/06/22 12:08:13;;;;;;;16.33;11.90;;;25.00;99.90;;;;;;4984514;28;21057;-68
2022/06/22 12:10:40;;;;;;;14.00;11.53;;;25.00;99.90;;;;;;5005030;28;20555;-68
2022/06/22 12:13:20;;;;;;;13.50;11.07;;;25.00;99.90;;;;;;5008153;28;20451;-68
2022/06/22 12:15:57;;;;;;;13.07;10.73;;;25.20;99.90;;;;;;5011410;28;20482;-67
2022/06/22 12:19:01;;;;;;;13.83;12.50;;;25.50;99.90;;;;;;5015842;28;20543;-68
2022/06/22 12:21:54;;;;;;;16.83;11.30;;;25.80;99.90;;;;;;5014364;28;20550;-66
2022/06/22 12:24:41;;;;;;;12.63;11.33;;;25.70;99.90;;;;;;4983496;28;20473;-67
2022/06/22 12:27:31;;;;;;;13.03;11.73;;;25.80;99.90;;;;;;5012696;28;20561;-69
2022/06/22 12:30:12;;;;;;;14.23;11.70;;;25.90;99.90;;;;;;5015560;28;20872;-67
2022/06/22 12:32:47;;;;;;;12.43;11.23;;;26.00;99.90;;;;;;5013150;28;20444;-68
2022/06/22 12:35:36;;;;;;;11.40;10.27;;;26.10;99.90;;;;;;5013237;28;20968;-68
2022/06/22 12:38:16;;;;;;;13.20;11.20;;;26.00;99.90;;;;;;5011490;28;21247;-68
2022/06/22 12:40:52;;;;;;;12.30;10.97;;;26.10;99.90;;;;;;5012735;28;21455;-67
2022/06/22 12:43:24;;;;;;;14.63;11.80;;;26.20;99.90;;;;;;5014387;28;20438;-67
2022/06/22 12:46:30;;;;;;;14.13;12.60;;;26.30;99.90;;;;;;5013078;28;20428;-69
2022/06/22 12:49:24;;;;;;;12.37;11.27;;;26.20;99.90;;;;;;4995992;28;20510;-68
2022/06/22 12:51:49;;;;;;;15.50;11.60;;;26.20;99.90;;;;;;5015440;28;20455;-68
2022/06/22 12:54:27;;;;;;;14.90;13.40;;;26.20;99.90;;;;;;5015118;28;20574;-68
2022/06/22 12:56:55;;;;;;;12.83;11.70;;;26.20;99.90;;;;;;5013927;28;20188;-68
2022/06/22 12:59:39;;;;;;;16.90;12.70;;;26.20;99.90;;;;;;5014439;28;20427;-67
2022/06/22 13:02:16;;;;;;;18.00;13.50;;;26.20;99.90;;;;;;5013229;28;20514;-68
2022/06/22 13:04:44;;;;;;;14.40;12.43;;;26.10;99.90;;;;;;5016465;28;20437;-68
2022/06/22 13:07:14;;;;;;;14.60;12.40;;;26.10;99.90;;;;;;5014227;28;20457;-68
2022/06/22 13:09:41;;;;;;;14.53;12.90;;;26.10;99.90;;;;;;4995033;28;20460;-67
2022/06/22 13:12:17;;;;;;;15.17;12.27;;;26.10;99.90;;;;;;5010501;28;20428;-67
2022/06/22 13:14:56;;;;;;;15.30;13.70;;;26.20;99.90;;;;;;5013731;28;20423;-67
2022/06/22 13:17:33;;;;;;;13.77;12.57;;;26.20;99.90;;;;;;5027420;22;20638;-68
2022/06/22 13:20:06;;;;;;;13.13;11.93;;;26.20;99.90;;;;;;5007400;28;20835;-68
2022/06/22 13:22:47;;;;;;;14.27;12.73;;;26.30;99.90;;;;;;5014421;28;20905;-69
2022/06/22 13:25:47;;;;;;;14.60;12.10;;;26.30;99.90;;;;;;5015322;28;20501;-70
2022/06/22 13:28:48;;;;;;;14.60;12.60;;;26.30;99.90;;;;;;4994964;28;20544;-68
2022/06/22 13:31:24;;;;;;;14.20;12.83;;;26.40;99.90;;;;;;4952505;28;20993;-69
2022/06/22 13:34:02;;;;;;;15.23;13.83;;;26.40;99.90;;;;;;4996570;28;20435;-67
2022/06/22 13:36:51;;;;;;;14.20;12.80;;;26.40;99.90;;;;;;5011792;28;20540;-68
2022/06/22 13:39:28;;;;;;;15.00;13.50;;;26.50;99.90;;;;;;4993451;28;20444;-70
2022/06/22 13:42:16;;;;;;;15.77;14.30;;;26.50;99.90;;;;;;4994336;28;20445;-69
2022/06/22 13:45:25;;;;;;;16.20;14.70;;;26.40;99.90;;;;;;4992147;28;20891;-70
2022/06/22 13:48:19;;;;;;;15.17;13.50;;;26.40;99.90;;;;;;4994244;28;20912;-67
2022/06/22 13:51:20;;;;;;;19.90;15.37;;;26.30;99.90;;;;;;4994718;28;20491;-66
2022/06/22 13:53:53;;;;;;;15.97;13.83;;;26.20;99.90;;;;;;4995234;28;21017;-68
2022/06/22 13:56:25;;;;;;;14.87;13.37;;;26.10;99.90;;;;;;4994204;28;20440;-68
2022/06/22 13:58:54;;;;;;;18.63;16.53;;;26.20;99.90;;;;;;4991656;28;20874;-67
2022/06/22 14:01:51;;;;;;;16.47;15.07;;;26.20;99.90;;;;;;4997963;28;20494;-68
2022/06/22 14:04:41;;;;;;;15.87;14.47;;;26.10;99.90;;;;;;4989749;28;20453;-71
2022/06/22 14:07:25;;;;;;;13.43;12.03;;;26.20;99.90;;;;;;4990600;28;20457;-70